sensor_id;sensor_type;location;lat;lon;timestamp;temperature;humidity
47921;DHT22;33686;48.770;9.186;2023-07-13T05:15:20;20.10;99.90
47921;DHT22;33686;48.770;9.186;2023-07-13T05:17:47;20.20;99.90
47921;DHT22;33686;48.770;9.186;2023-07-13T05:20:13;20.50;99.90
47921;DHT22;33686;48.770;9.186;2023-07-13T05:22:38;20.50;99.90
47921;DHT22;33686;48.770;9.186;2023-07-13T05:25:04;20.60;99.90
47921;DHT22;33686;48.770;9.186;2023-07-13T05:27:30;20.70;99.90
47921;DHT22;33686;48.770;9.186;2023-07-13T05:29:56;20.90;99.90
47921;DHT22;33686;48.770;9.186;2023-07-13T05:32:21;20.90;99.90
47921;DHT22;33686;48.770;9.186;2023-07-13T05:34:47;20.70;99.90
47921;DHT22;33686;48.770;9.186;2023-07-13T05:37:12;21.10;99.90
47921;DHT22;33686;48.770;9.186;2023-07-13T05:39:38;20.90;99.90
47921;DHT22;33686;48.770;9.186;2023-07-13T05:42:03;21.00;99.90
47921;DHT22;33686;48.770;9.186;2023-07-13T05:44:30;20.80;99.90
47921;DHT22;33686;48.770;9.186;2023-07-13T05:46:55;20.70;99.90
47921;DHT22;33686;48.770;9.186;2023-07-13T05:49:22;20.70;99.90
47921;DHT22;33686;48.770;9.186;2023-07-13T05:51:48;20.90;99.90
47921;DHT22;33686;48.770;9.186;2023-07-13T05:54:14;20.80;99.90
47921;DHT22;33686;48.770;9.186;2023-07-13T05:56:40;20.90;99.90
47921;DHT22;33686;48.770;9.186;2023-07-13T05:59:05;20.80;99.90
47921;DHT22;33686;48.770;9.186;2023-07-13T06:01:31;20.70;99.90
47921;DHT22;33686;48.770;9.186;2023-07-13T06:03:56;20.80;99.90
47921;DHT22;33686;48.770;9.186;2023-07-13T06:06:22;20.90;99.90
47921;DHT22;33686;48.770;9.186;2023-07-13T06:08:48;21.00;99.90
47921;DHT22;33686;48.770;9.186;2023-07-13T06:11:15;21.30;99.90
47921;DHT22;33686;48.770;9.186;2023-07-13T06:13:41;21.80;99.90
47921;DHT22;33686;48.770;9.186;2023-07-13T06:16:06;23.00;99.90
47921;DHT22;33686;48.770;9.186;2023-07-13T06:18:33;24.40;99.60
47921;DHT22;33686;48.770;9.186;2023-07-13T06:20:59;25.30;97.70
47921;DHT22;33686;48.770;9.186;2023-07-13T06:23:24;25.60;96.60
47921;DHT22;33686;48.770;9.186;2023-07-13T06:25:50;25.50;96.40
47921;DHT22;33686;48.770;9.186;2023-07-13T06:28:16;26.70;95.20
47921;DHT22;33686;48.770;9.186;2023-07-13T06:30:41;27.10;94.20
47921;DHT22;33686;48.770;9.186;2023-07-13T06:33:07;27.70;93.30
47921;DHT22;33686;48.770;9.186;2023-07-13T06:35:32;28.00;92.70
47921;DHT22;33686;48.770;9.186;2023-07-13T06:37:58;28.60;92.00
47921;DHT22;33686;48.770;9.186;2023-07-13T06:40:24;28.70;91.60
47921;DHT22;33686;48.770;9.186;2023-07-13T06:42:50;29.30;90.90
47921;DHT22;33686;48.770;9.186;2023-07-13T06:45:15;29.50;90.50
47921;DHT22;33686;48.770;9.186;2023-07-13T06:47:41;29.60;90.10
47921;DHT22;33686;48.770;9.186;2023-07-13T06:50:07;29.20;90.30
47921;DHT22;33686;48.770;9.186;2023-07-13T06:52:32;29.20;90.00
47921;DHT22;33686;48.770;9.186;2023-07-13T06:54:58;28.80;90.00
47921;DHT22;33686;48.770;9.186;2023-07-13T06:57:23;28.40;90.20
47921;DHT22;33686;48.770;9.186;2023-07-13T06:59:49;27.90;90.70
47921;DHT22;33686;48.770;9.186;2023-07-13T07:02:14;27.80;90.60
47921;DHT22;33686;48.770;9.186;2023-07-13T07:04:40;27.40;91.30
47921;DHT22;33686;48.770;9.186;2023-07-13T07:07:05;26.40;91.70
47921;DHT22;33686;48.770;9.186;2023-07-13T07:09:31;27.30;91.60
47921;DHT22;33686;48.770;9.186;2023-07-13T07:11:57;28.40;88.30
47921;DHT22;33686;48.770;9.186;2023-07-13T07:14:22;29.00;86.70
47921;DHT22;33686;48.770;9.186;2023-07-13T07:16:48;29.70;85.00
47921;DHT22;33686;48.770;9.186;2023-07-13T07:19:13;29.60;85.00
47921;DHT22;33686;48.770;9.186;2023-07-13T07:21:39;29.20;85.10
47921;DHT22;33686;48.770;9.186;2023-07-13T07:24:04;29.70;84.50
47921;DHT22;33686;48.770;9.186;2023-07-13T07:26:30;28.80;86.10
47921;DHT22;33686;48.770;9.186;2023-07-13T07:28:56;30.00;84.70
47921;DHT22;33686;48.770;9.186;2023-07-13T07:31:21;29.20;83.90
47921;DHT22;33686;48.770;9.186;2023-07-13T07:33:47;28.20;84.00
47921;DHT22;33686;48.770;9.186;2023-07-13T07:36:15;28.50;83.80
47921;DHT22;33686;48.770;9.186;2023-07-13T07:38:41;29.10;84.90
47921;DHT22;33686;48.770;9.186;2023-07-13T07:41:07;29.60;82.30
47921;DHT22;33686;48.770;9.186;2023-07-13T07:43:32;29.70;82.60
47921;DHT22;33686;48.770;9.186;2023-07-13T07:45:58;29.20;83.00
47921;DHT22;33686;48.770;9.186;2023-07-13T07:48:23;29.60;82.30
47921;DHT22;33686;48.770;9.186;2023-07-13T07:50:49;28.00;83.10
47921;DHT22;33686;48.770;9.186;2023-07-13T07:53:15;27.80;83.70
47921;DHT22;33686;48.770;9.186;2023-07-13T07:55:40;27.60;84.10
47921;DHT22;33686;48.770;9.186;2023-07-13T07:58:06;27.20;84.50
47921;DHT22;33686;48.770;9.186;2023-07-13T08:00:32;28.60;83.80
47921;DHT22;33686;48.770;9.186;2023-07-13T08:02:58;29.10;83.20
47921;DHT22;33686;48.770;9.186;2023-07-13T08:05:24;28.90;82.60
47921;DHT22;33686;48.770;9.186;2023-07-13T08:07:50;29.70;80.80
47921;DHT22;33686;48.770;9.186;2023-07-13T08:10:15;30.90;80.10
47921;DHT22;33686;48.770;9.186;2023-07-13T08:12:41;32.00;78.30
47921;DHT22;33686;48.770;9.186;2023-07-13T08:15:09;31.70;78.20
47921;DHT22;33686;48.770;9.186;2023-07-13T08:17:35;31.10;78.30
47921;DHT22;33686;48.770;9.186;2023-07-13T08:20:00;31.40;77.80
47921;DHT22;33686;48.770;9.186;2023-07-13T08:22:26;30.90;77.40
47921;DHT22;33686;48.770;9.186;2023-07-13T08:24:52;30.40;77.70
47921;DHT22;33686;48.770;9.186;2023-07-13T08:27:21;30.80;77.20
47921;DHT22;33686;48.770;9.186;2023-07-13T08:29:47;29.60;78.50
47921;DHT22;33686;48.770;9.186;2023-07-13T08:32:13;28.50;80.40
47921;DHT22;33686;48.770;9.186;2023-07-13T08:34:39;27.70;81.00
47921;DHT22;33686;48.770;9.186;2023-07-13T08:37:05;27.90;80.70
47921;DHT22;33686;48.770;9.186;2023-07-13T08:39:31;28.50;80.50
47921;DHT22;33686;48.770;9.186;2023-07-13T08:41:58;30.00;78.50
47921;DHT22;33686;48.770;9.186;2023-07-13T08:44:30;29.30;80.10
47921;DHT22;33686;48.770;9.186;2023-07-13T08:47:01;30.10;79.30
47921;DHT22;33686;48.770;9.186;2023-07-13T08:49:27;29.20;79.30
47921;DHT22;33686;48.770;9.186;2023-07-13T08:51:55;28.40;80.50
47921;DHT22;33686;48.770;9.186;2023-07-13T08:54:24;28.10;81.30
47921;DHT22;33686;48.770;9.186;2023-07-13T08:56:52;28.90;81.40
47921;DHT22;33686;48.770;9.186;2023-07-13T08:59:19;29.20;80.70
47921;DHT22;33686;48.770;9.186;2023-07-13T09:04:34;27.10;83.50
47921;DHT22;33686;48.770;9.186;2023-07-13T09:07:05;26.60;84.50
47921;DHT22;33686;48.770;9.186;2023-07-13T09:09:43;26.70;85.00
47921;DHT22;33686;48.770;9.186;2023-07-13T09:14:43;26.20;85.50
47921;DHT22;33686;48.770;9.186;2023-07-13T09:17:22;26.50;85.20
47921;DHT22;33686;48.770;9.186;2023-07-13T09:19:59;26.30;85.10
47921;DHT22;33686;48.770;9.186;2023-07-13T09:22:25;26.30;84.60
47921;DHT22;33686;48.770;9.186;2023-07-13T09:24:55;25.90;85.10
47921;DHT22;33686;48.770;9.186;2023-07-13T09:27:27;26.20;85.90
47921;DHT22;33686;48.770;9.186;2023-07-13T09:29:56;26.70;85.10
47921;DHT22;33686;48.770;9.186;2023-07-13T09:32:23;26.80;84.00
47921;DHT22;33686;48.770;9.186;2023-07-13T09:34:50;27.80;82.50
47921;DHT22;33686;48.770;9.186;2023-07-13T09:37:16;28.00;81.80
47921;DHT22;33686;48.770;9.186;2023-07-13T09:39:42;27.70;83.00
47921;DHT22;33686;48.770;9.186;2023-07-13T09:44:37;25.60;86.00
47921;DHT22;33686;48.770;9.186;2023-07-13T09:47:03;25.90;84.80
47921;DHT22;33686;48.770;9.186;2023-07-13T09:49:39;25.10;86.70
47921;DHT22;33686;48.770;9.186;2023-07-13T09:52:07;24.90;86.40
47921;DHT22;33686;48.770;9.186;2023-07-13T09:54:36;24.60;87.00
47921;DHT22;33686;48.770;9.186;2023-07-13T09:57:02;25.60;86.00
47921;DHT22;33686;48.770;9.186;2023-07-13T09:59:32;26.10;84.30
47921;DHT22;33686;48.770;9.186;2023-07-13T10:01:58;27.00;83.70
47921;DHT22;33686;48.770;9.186;2023-07-13T10:04:32;27.90;83.60
47921;DHT22;33686;48.770;9.186;2023-07-13T10:07:05;27.70;82.00
47921;DHT22;33686;48.770;9.186;2023-07-13T10:09:31;28.30;81.90
47921;DHT22;33686;48.770;9.186;2023-07-13T10:11:57;28.20;81.60
47921;DHT22;33686;48.770;9.186;2023-07-13T10:14:23;28.30;80.80
47921;DHT22;33686;48.770;9.186;2023-07-13T10:16:52;27.60;82.00
47921;DHT22;33686;48.770;9.186;2023-07-13T10:19:22;27.70;82.90
47921;DHT22;33686;48.770;9.186;2023-07-13T10:24:24;26.40;83.60
47921;DHT22;33686;48.770;9.186;2023-07-13T10:27:12;26.40;84.00
47921;DHT22;33686;48.770;9.186;2023-07-13T10:29:44;27.00;83.10
47921;DHT22;33686;48.770;9.186;2023-07-13T10:32:11;27.40;83.30
47921;DHT22;33686;48.770;9.186;2023-07-13T10:34:37;26.30;83.30
47921;DHT22;33686;48.770;9.186;2023-07-13T10:37:05;27.10;83.50
47921;DHT22;33686;48.770;9.186;2023-07-13T10:39:31;27.10;82.30
47921;DHT22;33686;48.770;9.186;2023-07-13T10:41:59;26.90;83.20
47921;DHT22;33686;48.770;9.186;2023-07-13T10:44:26;27.00;82.90
47921;DHT22;33686;48.770;9.186;2023-07-13T10:47:01;27.00;82.70
47921;DHT22;33686;48.770;9.186;2023-07-13T10:49:28;26.50;82.90
47921;DHT22;33686;48.770;9.186;2023-07-13T10:51:54;25.60;84.30
47921;DHT22;33686;48.770;9.186;2023-07-13T10:54:20;25.70;84.10
47921;DHT22;33686;48.770;9.186;2023-07-13T10:56:51;25.80;84.10
47921;DHT22;33686;48.770;9.186;2023-07-13T10:59:18;26.00;84.40
47921;DHT22;33686;48.770;9.186;2023-07-13T11:04:19;26.90;82.20
47921;DHT22;33686;48.770;9.186;2023-07-13T11:06:47;26.80;83.00
47921;DHT22;33686;48.770;9.186;2023-07-13T11:12:02;27.00;82.80
47921;DHT22;33686;48.770;9.186;2023-07-13T11:14:36;27.30;82.50
47921;DHT22;33686;48.770;9.186;2023-07-13T11:19:48;25.90;82.90
47921;DHT22;33686;48.770;9.186;2023-07-13T11:22:16;25.80;83.50
47921;DHT22;33686;48.770;9.186;2023-07-13T11:27:45;26.40;83.50
47921;DHT22;33686;48.770;9.186;2023-07-13T11:33:15;26.20;84.00
47921;DHT22;33686;48.770;9.186;2023-07-13T11:36:03;26.20;84.20
47921;DHT22;33686;48.770;9.186;2023-07-13T11:38:32;25.60;84.30
47921;DHT22;33686;48.770;9.186;2023-07-13T11:40:58;26.50;84.20
47921;DHT22;33686;48.770;9.186;2023-07-13T11:43:28;26.20;83.80
47921;DHT22;33686;48.770;9.186;2023-07-13T11:45:53;26.30;83.70
47921;DHT22;33686;48.770;9.186;2023-07-13T11:50:51;25.70;84.60
47921;DHT22;33686;48.770;9.186;2023-07-13T11:53:17;25.40;85.10
47921;DHT22;33686;48.770;9.186;2023-07-13T11:55:42;25.30;84.90
47921;DHT22;33686;48.770;9.186;2023-07-13T11:58:08;25.70;84.50
47921;DHT22;33686;48.770;9.186;2023-07-13T12:00:35;25.10;84.70
47921;DHT22;33686;48.770;9.186;2023-07-13T12:03:03;25.60;85.30
47921;DHT22;33686;48.770;9.186;2023-07-13T12:05:30;25.80;85.00
47921;DHT22;33686;48.770;9.186;2023-07-13T12:07:57;25.80;84.70
47921;DHT22;33686;48.770;9.186;2023-07-13T12:10:27;25.90;84.90
47921;DHT22;33686;48.770;9.186;2023-07-13T12:12:58;26.40;84.90
47921;DHT22;33686;48.770;9.186;2023-07-13T12:15:44;26.40;83.80
47921;DHT22;33686;48.770;9.186;2023-07-13T12:20:38;25.80;84.50
47921;DHT22;33686;48.770;9.186;2023-07-13T12:25:48;25.70;84.00
47921;DHT22;33686;48.770;9.186;2023-07-13T12:28:28;26.20;82.60
47921;DHT22;33686;48.770;9.186;2023-07-13T12:30:59;26.50;83.20
47921;DHT22;33686;48.770;9.186;2023-07-13T12:33:27;26.40;82.80
47921;DHT22;33686;48.770;9.186;2023-07-13T12:35:53;26.40;82.90
47921;DHT22;33686;48.770;9.186;2023-07-13T12:38:19;26.20;82.90
47921;DHT22;33686;48.770;9.186;2023-07-13T12:40:50;26.00;82.90
47921;DHT22;33686;48.770;9.186;2023-07-13T12:43:16;25.60;83.30
47921;DHT22;33686;48.770;9.186;2023-07-13T12:45:56;25.50;83.10
47921;DHT22;33686;48.770;9.186;2023-07-13T12:48:21;25.60;82.90
47921;DHT22;33686;48.770;9.186;2023-07-13T12:50:47;25.60;82.80
47921;DHT22;33686;48.770;9.186;2023-07-13T12:53:14;26.10;82.30
47921;DHT22;33686;48.770;9.186;2023-07-13T12:55:41;26.40;82.20
47921;DHT22;33686;48.770;9.186;2023-07-13T12:58:09;26.80;81.90
47921;DHT22;33686;48.770;9.186;2023-07-13T13:00:39;27.00;81.10
47921;DHT22;33686;48.770;9.186;2023-07-13T13:03:29;26.50;81.30
47921;DHT22;33686;48.770;9.186;2023-07-13T13:05:56;26.10;81.60
47921;DHT22;33686;48.770;9.186;2023-07-13T13:08:22;26.40;81.90
47921;DHT22;33686;48.770;9.186;2023-07-13T13:10:47;26.50;81.40
47921;DHT22;33686;48.770;9.186;2023-07-13T13:13:13;27.10;81.90
47921;DHT22;33686;48.770;9.186;2023-07-13T13:15:39;26.90;80.90
47921;DHT22;33686;48.770;9.186;2023-07-13T13:18:09;26.80;80.30
47921;DHT22;33686;48.770;9.186;2023-07-13T13:20:38;26.40;80.60
47921;DHT22;33686;48.770;9.186;2023-07-13T13:23:04;26.60;80.70
47921;DHT22;33686;48.770;9.186;2023-07-13T13:25:29;26.80;80.50
47921;DHT22;33686;48.770;9.186;2023-07-13T13:27:55;27.40;80.90
47921;DHT22;33686;48.770;9.186;2023-07-13T13:30:21;27.30;79.70
47921;DHT22;33686;48.770;9.186;2023-07-13T13:32:47;27.00;79.70
47921;DHT22;33686;48.770;9.186;2023-07-13T13:35:17;26.90;79.70
47921;DHT22;33686;48.770;9.186;2023-07-13T13:37:43;27.10;79.90
47921;DHT22;33686;48.770;9.186;2023-07-13T13:40:19;27.30;79.90
47921;DHT22;33686;48.770;9.186;2023-07-13T13:42:45;27.80;79.10
47921;DHT22;33686;48.770;9.186;2023-07-13T13:45:11;27.60;79.40
47921;DHT22;33686;48.770;9.186;2023-07-13T13:47:38;27.20;79.00
47921;DHT22;33686;48.770;9.186;2023-07-13T13:50:15;26.90;79.70
47921;DHT22;33686;48.770;9.186;2023-07-13T13:52:41;27.20;79.70
47921;DHT22;33686;48.770;9.186;2023-07-13T13:55:17;27.00;79.60
47921;DHT22;33686;48.770;9.186;2023-07-13T13:57:47;26.90;79.10
47921;DHT22;33686;48.770;9.186;2023-07-13T14:00:13;26.30;79.60
47921;DHT22;33686;48.770;9.186;2023-07-13T14:02:44;26.00;80.10
47921;DHT22;33686;48.770;9.186;2023-07-13T14:05:13;26.20;80.10
47921;DHT22;33686;48.770;9.186;2023-07-13T14:07:39;26.30;79.80
47921;DHT22;33686;48.770;9.186;2023-07-13T14:10:10;26.60;79.50
47921;DHT22;33686;48.770;9.186;2023-07-13T14:12:36;26.40;79.70
47921;DHT22;33686;48.770;9.186;2023-07-13T14:15:02;26.30;80.60
47921;DHT22;33686;48.770;9.186;2023-07-13T14:17:28;26.40;80.30
47921;DHT22;33686;48.770;9.186;2023-07-13T14:19:53;26.50;80.00
47921;DHT22;33686;48.770;9.186;2023-07-13T14:22:23;26.50;80.10
47921;DHT22;33686;48.770;9.186;2023-07-13T14:24:51;26.50;80.20
47921;DHT22;33686;48.770;9.186;2023-07-13T14:27:16;26.50;80.30
47921;DHT22;33686;48.770;9.186;2023-07-13T14:29:42;26.70;80.40
47921;DHT22;33686;48.770;9.186;2023-07-13T14:32:11;26.30;80.80
47921;DHT22;33686;48.770;9.186;2023-07-13T14:34:37;26.30;80.70
47921;DHT22;33686;48.770;9.186;2023-07-13T14:37:03;26.40;79.70
47921;DHT22;33686;48.770;9.186;2023-07-13T14:39:29;26.20;79.30
47921;DHT22;33686;48.770;9.186;2023-07-13T14:41:56;26.60;79.50
47921;DHT22;33686;48.770;9.186;2023-07-13T14:44:24;26.80;79.20
47921;DHT22;33686;48.770;9.186;2023-07-13T14:46:51;26.80;79.30
47921;DHT22;33686;48.770;9.186;2023-07-13T14:51:45;27.40;79.20
47921;DHT22;33686;48.770;9.186;2023-07-13T14:54:11;27.10;79.40
47921;DHT22;33686;48.770;9.186;2023-07-13T14:56:37;27.20;78.90
47921;DHT22;33686;48.770;9.186;2023-07-13T14:59:02;27.40;79.30
47921;DHT22;33686;48.770;9.186;2023-07-13T15:01:28;27.30;78.90
47921;DHT22;33686;48.770;9.186;2023-07-13T15:03:57;27.30;78.80
47921;DHT22;33686;48.770;9.186;2023-07-13T15:06:23;27.00;79.40
47921;DHT22;33686;48.770;9.186;2023-07-13T15:08:49;27.00;79.50
47921;DHT22;33686;48.770;9.186;2023-07-13T15:11:15;27.10;79.20
47921;DHT22;33686;48.770;9.186;2023-07-13T15:13:41;26.40;80.00
47921;DHT22;33686;48.770;9.186;2023-07-13T15:16:14;26.40;80.10
47921;DHT22;33686;48.770;9.186;2023-07-13T15:18:40;26.00;80.90
47921;DHT22;33686;48.770;9.186;2023-07-13T15:21:08;26.10;81.10
47921;DHT22;33686;48.770;9.186;2023-07-13T15:23:34;26.30;81.10
47921;DHT22;33686;48.770;9.186;2023-07-13T15:25:59;26.50;80.60
47921;DHT22;33686;48.770;9.186;2023-07-13T15:28:25;27.00;80.00
47921;DHT22;33686;48.770;9.186;2023-07-13T15:30:50;26.70;79.60
47921;DHT22;33686;48.770;9.186;2023-07-13T15:35:44;26.70;79.70
47921;DHT22;33686;48.770;9.186;2023-07-13T15:38:18;26.60;79.60
47921;DHT22;33686;48.770;9.186;2023-07-13T15:40:45;26.60;80.10
47921;DHT22;33686;48.770;9.186;2023-07-13T15:43:12;26.40;80.30
47921;DHT22;33686;48.770;9.186;2023-07-13T15:45:38;26.10;80.30
47921;DHT22;33686;48.770;9.186;2023-07-13T15:48:11;26.10;80.10
47921;DHT22;33686;48.770;9.186;2023-07-13T15:50:42;26.10;80.40
47921;DHT22;33686;48.770;9.186;2023-07-13T15:53:08;26.20;80.30
47921;DHT22;33686;48.770;9.186;2023-07-13T15:55:36;26.20;80.10
47921;DHT22;33686;48.770;9.186;2023-07-13T15:58:02;26.20;80.00
47921;DHT22;33686;48.770;9.186;2023-07-13T16:00:28;26.00;80.30
47921;DHT22;33686;48.770;9.186;2023-07-13T16:02:53;26.20;80.40
47921;DHT22;33686;48.770;9.186;2023-07-13T16:05:20;26.10;79.90
47921;DHT22;33686;48.770;9.186;2023-07-13T16:07:47;25.90;80.10
47921;DHT22;33686;48.770;9.186;2023-07-13T16:10:14;25.70;80.70
47921;DHT22;33686;48.770;9.186;2023-07-13T16:12:40;26.00;80.80
47921;DHT22;33686;48.770;9.186;2023-07-13T16:15:13;26.10;80.70
47921;DHT22;33686;48.770;9.186;2023-07-13T16:17:41;26.30;80.80
47921;DHT22;33686;48.770;9.186;2023-07-13T16:20:07;26.20;80.50
47921;DHT22;33686;48.770;9.186;2023-07-13T16:22:36;26.20;80.30
47921;DHT22;33686;48.770;9.186;2023-07-13T16:25:02;25.90;80.20
47921;DHT22;33686;48.770;9.186;2023-07-13T16:27:31;25.50;80.60
47921;DHT22;33686;48.770;9.186;2023-07-13T16:29:59;25.50;80.50
47921;DHT22;33686;48.770;9.186;2023-07-13T16:32:24;25.40;80.40
47921;DHT22;33686;48.770;9.186;2023-07-13T16:34:54;25.30;80.70
47921;DHT22;33686;48.770;9.186;2023-07-13T16:37:21;25.20;81.70
47921;DHT22;33686;48.770;9.186;2023-07-13T16:39:49;25.20;81.50
47921;DHT22;33686;48.770;9.186;2023-07-13T16:42:18;25.70;81.30
47921;DHT22;33686;48.770;9.186;2023-07-13T16:44:43;25.70;81.10
47921;DHT22;33686;48.770;9.186;2023-07-13T16:47:12;25.60;81.50
47921;DHT22;33686;48.770;9.186;2023-07-13T16:49:38;25.80;81.00
47921;DHT22;33686;48.770;9.186;2023-07-13T16:52:04;25.80;80.80
47921;DHT22;33686;48.770;9.186;2023-07-13T16:54:30;25.80;80.90
47921;DHT22;33686;48.770;9.186;2023-07-13T16:56:56;25.50;81.10
47921;DHT22;33686;48.770;9.186;2023-07-13T16:59:22;25.40;81.50
47921;DHT22;33686;48.770;9.186;2023-07-13T17:01:49;25.20;81.50
47921;DHT22;33686;48.770;9.186;2023-07-13T17:04:15;25.40;81.90
47921;DHT22;33686;48.770;9.186;2023-07-13T17:06:46;25.60;81.60
47921;DHT22;33686;48.770;9.186;2023-07-13T17:09:12;25.60;81.70
47921;DHT22;33686;48.770;9.186;2023-07-13T17:11:42;25.40;81.80
47921;DHT22;33686;48.770;9.186;2023-07-13T17:14:14;25.50;82.00
47921;DHT22;33686;48.770;9.186;2023-07-13T17:16:46;25.10;82.20
47921;DHT22;33686;48.770;9.186;2023-07-13T17:19:12;25.10;82.20
47921;DHT22;33686;48.770;9.186;2023-07-13T17:21:38;25.10;82.40
47921;DHT22;33686;48.770;9.186;2023-07-13T17:24:16;25.30;82.70
47921;DHT22;33686;48.770;9.186;2023-07-13T17:26:45;25.30;81.90
47921;DHT22;33686;48.770;9.186;2023-07-13T17:29:14;25.20;82.00
47921;DHT22;33686;48.770;9.186;2023-07-13T17:31:40;25.00;82.50
47921;DHT22;33686;48.770;9.186;2023-07-13T17:34:08;25.00;82.40
47921;DHT22;33686;48.770;9.186;2023-07-13T17:36:34;24.90;82.60
47921;DHT22;33686;48.770;9.186;2023-07-13T17:39:00;24.90;82.70
47921;DHT22;33686;48.770;9.186;2023-07-13T17:41:29;24.90;83.00
47921;DHT22;33686;48.770;9.186;2023-07-13T17:43:55;24.80;83.00
47921;DHT22;33686;48.770;9.186;2023-07-13T17:46:23;24.70;83.20
47921;DHT22;33686;48.770;9.186;2023-07-13T17:48:49;24.60;83.20
47921;DHT22;33686;48.770;9.186;2023-07-13T17:51:16;24.70;83.60
47921;DHT22;33686;48.770;9.186;2023-07-13T17:53:43;24.70;83.70
47921;DHT22;33686;48.770;9.186;2023-07-13T17:56:12;24.80;83.80
47921;DHT22;33686;48.770;9.186;2023-07-13T17:58:38;24.70;84.00
47921;DHT22;33686;48.770;9.186;2023-07-13T18:01:04;24.60;84.30
47921;DHT22;33686;48.770;9.186;2023-07-13T18:03:32;24.50;84.40
47921;DHT22;33686;48.770;9.186;2023-07-13T18:06:03;24.30;84.60
47921;DHT22;33686;48.770;9.186;2023-07-13T18:08:32;24.30;84.60
47921;DHT22;33686;48.770;9.186;2023-07-13T18:11:01;24.30;84.70
47921;DHT22;33686;48.770;9.186;2023-07-13T18:13:28;24.30;84.70
47921;DHT22;33686;48.770;9.186;2023-07-13T18:15:55;24.30;84.40
47921;DHT22;33686;48.770;9.186;2023-07-13T18:18:23;24.20;84.70
47921;DHT22;33686;48.770;9.186;2023-07-13T18:20:49;24.20;85.50
47921;DHT22;33686;48.770;9.186;2023-07-13T18:23:17;24.10;85.20
47921;DHT22;33686;48.770;9.186;2023-07-13T18:25:43;24.10;85.40
47921;DHT22;33686;48.770;9.186;2023-07-13T18:28:11;24.10;85.70
47921;DHT22;33686;48.770;9.186;2023-07-13T18:30:37;24.00;86.20
47921;DHT22;33686;48.770;9.186;2023-07-13T18:33:02;24.00;86.50
47921;DHT22;33686;48.770;9.186;2023-07-13T18:35:29;23.90;86.70
47921;DHT22;33686;48.770;9.186;2023-07-13T18:37:55;23.80;87.10
47921;DHT22;33686;48.770;9.186;2023-07-13T18:40:22;23.90;87.20
47921;DHT22;33686;48.770;9.186;2023-07-13T18:42:50;23.80;87.30
47921;DHT22;33686;48.770;9.186;2023-07-13T18:45:16;23.80;87.60
47921;DHT22;33686;48.770;9.186;2023-07-13T18:47:43;23.70;88.00
47921;DHT22;33686;48.770;9.186;2023-07-13T18:50:12;23.60;88.10
47921;DHT22;33686;48.770;9.186;2023-07-13T18:52:38;23.60;88.20
47921;DHT22;33686;48.770;9.186;2023-07-13T18:55:25;23.50;88.30
47921;DHT22;33686;48.770;9.186;2023-07-13T18:57:50;23.40;88.50
47921;DHT22;33686;48.770;9.186;2023-07-13T19:00:24;23.30;88.90
47921;DHT22;33686;48.770;9.186;2023-07-13T19:02:54;23.30;88.90
47921;DHT22;33686;48.770;9.186;2023-07-13T19:05:21;23.30;89.00
47921;DHT22;33686;48.770;9.186;2023-07-13T19:07:47;23.30;89.10
47921;DHT22;33686;48.770;9.186;2023-07-13T19:10:13;23.30;89.10
47921;DHT22;33686;48.770;9.186;2023-07-13T19:12:39;23.10;89.40
47921;DHT22;33686;48.770;9.186;2023-07-13T19:15:39;23.10;89.60
47921;DHT22;33686;48.770;9.186;2023-07-13T19:17:58;23.20;89.70
47921;DHT22;33686;48.770;9.186;2023-07-13T19:20:24;23.10;90.10
47921;DHT22;33686;48.770;9.186;2023-07-13T19:22:51;23.00;90.10
47921;DHT22;33686;48.770;9.186;2023-07-13T19:25:18;22.90;90.10
47921;DHT22;33686;48.770;9.186;2023-07-13T19:27:45;23.00;90.10
47921;DHT22;33686;48.770;9.186;2023-07-13T19:30:12;23.00;90.20
47921;DHT22;33686;48.770;9.186;2023-07-13T19:32:38;23.00;90.20
47921;DHT22;33686;48.770;9.186;2023-07-13T19:35:04;22.90;90.30
47921;DHT22;33686;48.770;9.186;2023-07-13T19:37:32;22.90;90.20
47921;DHT22;33686;48.770;9.186;2023-07-13T19:39:59;22.90;90.30
47921;DHT22;33686;48.770;9.186;2023-07-13T19:42:25;22.70;90.40
47921;DHT22;33686;48.770;9.186;2023-07-13T19:44:54;22.70;90.40
47921;DHT22;33686;48.770;9.186;2023-07-13T19:47:20;22.80;90.40
47921;DHT22;33686;48.770;9.186;2023-07-13T19:49:46;22.70;90.50
47921;DHT22;33686;48.770;9.186;2023-07-13T19:52:13;22.60;90.50
47921;DHT22;33686;48.770;9.186;2023-07-13T19:54:39;22.60;90.60
47921;DHT22;33686;48.770;9.186;2023-07-13T19:57:14;22.60;90.60
47921;DHT22;33686;48.770;9.186;2023-07-13T19:59:40;22.60;90.70
47921;DHT22;33686;48.770;9.186;2023-07-13T20:02:06;22.60;90.70
47921;DHT22;33686;48.770;9.186;2023-07-13T20:04:31;22.70;90.60
47921;DHT22;33686;48.770;9.186;2023-07-13T20:06:57;22.70;90.80
47921;DHT22;33686;48.770;9.186;2023-07-13T20:09:23;22.60;90.80
47921;DHT22;33686;48.770;9.186;2023-07-13T20:11:49;22.60;90.80
47921;DHT22;33686;48.770;9.186;2023-07-13T20:14:23;22.70;90.70
47921;DHT22;33686;48.770;9.186;2023-07-13T20:16:50;22.60;90.80
47921;DHT22;33686;48.770;9.186;2023-07-13T20:19:16;22.70;90.80
47921;DHT22;33686;48.770;9.186;2023-07-13T20:21:42;22.60;91.00
47921;DHT22;33686;48.770;9.186;2023-07-13T20:24:15;22.50;91.00
47921;DHT22;33686;48.770;9.186;2023-07-13T20:26:45;22.40;91.20
47921;DHT22;33686;48.770;9.186;2023-07-13T20:29:11;22.30;91.30
47921;DHT22;33686;48.770;9.186;2023-07-13T20:37:00;22.20;91.40
47921;DHT22;33686;48.770;9.186;2023-07-13T20:39:25;22.30;91.30
47921;DHT22;33686;48.770;9.186;2023-07-13T20:41:51;22.40;91.40
47921;DHT22;33686;48.770;9.186;2023-07-13T20:44:17;22.40;91.30
47921;DHT22;33686;48.770;9.186;2023-07-13T20:46:43;22.40;91.40
47921;DHT22;33686;48.770;9.186;2023-07-13T20:49:09;22.30;91.50
47921;DHT22;33686;48.770;9.186;2023-07-13T20:51:37;22.10;92.20
47921;DHT22;33686;48.770;9.186;2023-07-13T20:54:02;22.00;93.00
47921;DHT22;33686;48.770;9.186;2023-07-13T20:56:28;22.00;93.20
47921;DHT22;33686;48.770;9.186;2023-07-13T20:58:57;21.80;93.40
47921;DHT22;33686;48.770;9.186;2023-07-13T21:01:32;21.80;94.00
47921;DHT22;33686;48.770;9.186;2023-07-13T21:03:59;21.70;94.30
47921;DHT22;33686;48.770;9.186;2023-07-13T21:06:26;21.30;95.10
47921;DHT22;33686;48.770;9.186;2023-07-13T21:08:54;21.00;95.50
47921;DHT22;33686;48.770;9.186;2023-07-13T21:11:19;20.70;96.20
47921;DHT22;33686;48.770;9.186;2023-07-13T21:13:45;20.60;96.40
47921;DHT22;33686;48.770;9.186;2023-07-13T21:16:15;20.50;96.90
47921;DHT22;33686;48.770;9.186;2023-07-13T21:18:42;20.50;97.20
47921;DHT22;33686;48.770;9.186;2023-07-13T21:21:11;20.50;97.30
47921;DHT22;33686;48.770;9.186;2023-07-13T21:23:37;20.30;97.60
47921;DHT22;33686;48.770;9.186;2023-07-13T21:26:03;20.20;98.00
47921;DHT22;33686;48.770;9.186;2023-07-13T21:28:33;20.20;98.10